sensor_id;sensor_type;location;lat;lon;timestamp;P1;durP1;ratioP1;P2;durP2;ratioP2
842;SDS011;407;48.884;9.126;2023-07-08T00:01:54;11.40;;;4.03;;
842;SDS011;407;48.884;9.126;2023-07-08T00:04:20;10.38;;;3.60;;
842;SDS011;407;48.884;9.126;2023-07-08T00:06:46;14.43;;;4.80;;
842;SDS011;407;48.884;9.126;2023-07-08T00:09:12;12.40;;;4.67;;
842;SDS011;407;48.884;9.126;2023-07-08T00:11:38;9.50;;;3.60;;
842;SDS011;407;48.884;9.126;2023-07-08T00:14:03;11.43;;;3.90;;
842;SDS011;407;48.884;9.126;2023-07-08T00:16:29;12.40;;;4.13;;
842;SDS011;407;48.884;9.126;2023-07-08T00:18:55;9.27;;;3.30;;
842;SDS011;407;48.884;9.126;2023-07-08T00:21:20;11.73;;;4.27;;
842;SDS011;407;48.884;9.126;2023-07-08T00:23:50;12.97;;;4.50;;
842;SDS011;407;48.884;9.126;2023-07-08T00:26:22;11.20;;;4.32;;
842;SDS011;407;48.884;9.126;2023-07-08T00:28:50;12.70;;;4.68;;
842;SDS011;407;48.884;9.126;2023-07-08T00:31:16;10.82;;;4.38;;
842;SDS011;407;48.884;9.126;2023-07-08T00:33:42;11.37;;;4.27;;
842;SDS011;407;48.884;9.126;2023-07-08T00:36:08;10.57;;;4.23;;
842;SDS011;407;48.884;9.126;2023-07-08T00:38:38;10.88;;;3.80;;
842;SDS011;407;48.884;9.126;2023-07-08T00:41:11;10.63;;;4.32;;
842;SDS011;407;48.884;9.126;2023-07-08T00:43:50;11.70;;;4.63;;
842;SDS011;407;48.884;9.126;2023-07-08T00:51:32;11.52;;;3.92;;
842;SDS011;407;48.884;9.126;2023-07-08T00:54:12;9.57;;;3.63;;
842;SDS011;407;48.884;9.126;2023-07-08T00:56:43;10.88;;;4.10;;
842;SDS011;407;48.884;9.126;2023-07-08T00:59:35;11.52;;;3.90;;
842;SDS011;407;48.884;9.126;2023-07-08T01:02:06;12.10;;;4.07;;
842;SDS011;407;48.884;9.126;2023-07-08T01:04:43;11.07;;;4.38;;
842;SDS011;407;48.884;9.126;2023-07-08T01:07:26;10.27;;;4.03;;
842;SDS011;407;48.884;9.126;2023-07-08T01:09:59;10.45;;;3.90;;
842;SDS011;407;48.884;9.126;2023-07-08T01:12:36;9.45;;;3.10;;
842;SDS011;407;48.884;9.126;2023-07-08T01:15:05;11.90;;;4.10;;
842;SDS011;407;48.884;9.126;2023-07-08T01:17:33;10.38;;;4.00;;
842;SDS011;407;48.884;9.126;2023-07-08T01:19:59;9.93;;;4.20;;
842;SDS011;407;48.884;9.126;2023-07-08T01:22:30;11.52;;;4.30;;
842;SDS011;407;48.884;9.126;2023-07-08T01:24:57;12.15;;;4.78;;
842;SDS011;407;48.884;9.126;2023-07-08T01:27:28;9.70;;;3.70;;
842;SDS011;407;48.884;9.126;2023-07-08T01:29:56;10.70;;;3.90;;
842;SDS011;407;48.884;9.126;2023-07-08T01:32:23;12.67;;;4.43;;
842;SDS011;407;48.884;9.126;2023-07-08T01:34:49;12.05;;;4.28;;
842;SDS011;407;48.884;9.126;2023-07-08T01:37:36;9.63;;;3.47;;
842;SDS011;407;48.884;9.126;2023-07-08T01:42:44;12.02;;;4.25;;
842;SDS011;407;48.884;9.126;2023-07-08T01:45:14;11.90;;;4.90;;
842;SDS011;407;48.884;9.126;2023-07-08T01:47:41;13.35;;;4.30;;
842;SDS011;407;48.884;9.126;2023-07-08T01:50:10;12.23;;;4.35;;
842;SDS011;407;48.884;9.126;2023-07-08T01:52:37;9.73;;;3.80;;
842;SDS011;407;48.884;9.126;2023-07-08T01:55:03;11.17;;;4.23;;
842;SDS011;407;48.884;9.126;2023-07-08T01:57:29;11.48;;;4.38;;
842;SDS011;407;48.884;9.126;2023-07-08T01:59:54;12.00;;;4.57;;
842;SDS011;407;48.884;9.126;2023-07-08T02:02:20;13.50;;;4.57;;
842;SDS011;407;48.884;9.126;2023-07-08T02:04:47;11.05;;;4.43;;
842;SDS011;407;48.884;9.126;2023-07-08T02:07:12;10.60;;;4.63;;
842;SDS011;407;48.884;9.126;2023-07-08T02:09:38;12.23;;;4.63;;
842;SDS011;407;48.884;9.126;2023-07-08T02:12:03;9.93;;;4.00;;
842;SDS011;407;48.884;9.126;2023-07-08T02:14:29;11.77;;;4.10;;
842;SDS011;407;48.884;9.126;2023-07-08T02:16:55;12.02;;;4.60;;
842;SDS011;407;48.884;9.126;2023-07-08T02:19:20;11.07;;;4.32;;
842;SDS011;407;48.884;9.126;2023-07-08T02:21:47;10.80;;;4.10;;
842;SDS011;407;48.884;9.126;2023-07-08T02:24:12;13.00;;;4.63;;
842;SDS011;407;48.884;9.126;2023-07-08T02:26:38;12.57;;;4.80;;
842;SDS011;407;48.884;9.126;2023-07-08T02:29:03;11.33;;;4.10;;
842;SDS011;407;48.884;9.126;2023-07-08T02:31:29;11.00;;;3.87;;
842;SDS011;407;48.884;9.126;2023-07-08T02:33:54;12.20;;;4.70;;
842;SDS011;407;48.884;9.126;2023-07-08T02:36:20;12.70;;;4.50;;
842;SDS011;407;48.884;9.126;2023-07-08T02:38:46;11.15;;;4.80;;
842;SDS011;407;48.884;9.126;2023-07-08T02:41:11;10.33;;;4.33;;
842;SDS011;407;48.884;9.126;2023-07-08T02:43:37;12.90;;;4.87;;
842;SDS011;407;48.884;9.126;2023-07-08T02:46:03;12.57;;;4.30;;
842;SDS011;407;48.884;9.126;2023-07-08T02:48:29;10.20;;;3.80;;
842;SDS011;407;48.884;9.126;2023-07-08T02:51:04;11.83;;;4.00;;
842;SDS011;407;48.884;9.126;2023-07-08T02:53:30;14.57;;;4.43;;
842;SDS011;407;48.884;9.126;2023-07-08T02:55:56;14.18;;;4.90;;
842;SDS011;407;48.884;9.126;2023-07-08T02:58:22;11.97;;;4.73;;
842;SDS011;407;48.884;9.126;2023-07-08T03:00:52;11.88;;;4.57;;
842;SDS011;407;48.884;9.126;2023-07-08T03:03:18;10.30;;;3.90;;
842;SDS011;407;48.884;9.126;2023-07-08T03:05:44;11.70;;;4.70;;
842;SDS011;407;48.884;9.126;2023-07-08T03:08:17;10.10;;;3.80;;
842;SDS011;407;48.884;9.126;2023-07-08T03:10:45;11.67;;;4.20;;
842;SDS011;407;48.884;9.126;2023-07-08T03:13:12;11.38;;;3.95;;
842;SDS011;407;48.884;9.126;2023-07-08T03:15:38;13.60;;;4.20;;
842;SDS011;407;48.884;9.126;2023-07-08T03:18:03;11.77;;;4.20;;
842;SDS011;407;48.884;9.126;2023-07-08T03:20:30;11.13;;;4.50;;
842;SDS011;407;48.884;9.126;2023-07-08T03:22:58;11.57;;;4.05;;
842;SDS011;407;48.884;9.126;2023-07-08T03:25:23;11.02;;;4.18;;
842;SDS011;407;48.884;9.126;2023-07-08T03:27:49;11.70;;;5.00;;
842;SDS011;407;48.884;9.126;2023-07-08T03:30:15;10.40;;;4.40;;
842;SDS011;407;48.884;9.126;2023-07-08T03:32:40;10.07;;;3.70;;
842;SDS011;407;48.884;9.126;2023-07-08T03:35:07;11.90;;;4.65;;
842;SDS011;407;48.884;9.126;2023-07-08T03:37:33;13.35;;;4.60;;
842;SDS011;407;48.884;9.126;2023-07-08T03:39:58;12.43;;;4.93;;
842;SDS011;407;48.884;9.126;2023-07-08T03:42:24;10.90;;;4.30;;
842;SDS011;407;48.884;9.126;2023-07-08T03:44:49;11.00;;;4.80;;
842;SDS011;407;48.884;9.126;2023-07-08T03:47:15;12.63;;;4.73;;
842;SDS011;407;48.884;9.126;2023-07-08T03:49:40;14.60;;;4.30;;
842;SDS011;407;48.884;9.126;2023-07-08T03:52:07;13.17;;;4.40;;
842;SDS011;407;48.884;9.126;2023-07-08T03:54:40;11.55;;;4.32;;
842;SDS011;407;48.884;9.126;2023-07-08T03:57:06;11.25;;;4.40;;
842;SDS011;407;48.884;9.126;2023-07-08T03:59:31;11.35;;;4.72;;
842;SDS011;407;48.884;9.126;2023-07-08T04:01:57;10.60;;;4.30;;
842;SDS011;407;48.884;9.126;2023-07-08T04:04:22;11.77;;;4.80;;
842;SDS011;407;48.884;9.126;2023-07-08T04:06:48;12.67;;;4.63;;
842;SDS011;407;48.884;9.126;2023-07-08T04:09:15;11.43;;;4.43;;
842;SDS011;407;48.884;9.126;2023-07-08T04:11:41;12.18;;;4.78;;
842;SDS011;407;48.884;9.126;2023-07-08T04:14:08;15.53;;;5.30;;
842;SDS011;407;48.884;9.126;2023-07-08T04:16:42;14.50;;;4.30;;
842;SDS011;407;48.884;9.126;2023-07-08T04:19:12;12.77;;;4.60;;
842;SDS011;407;48.884;9.126;2023-07-08T04:21:40;10.65;;;4.32;;
842;SDS011;407;48.884;9.126;2023-07-08T04:24:08;12.55;;;4.65;;
842;SDS011;407;48.884;9.126;2023-07-08T04:26:38;16.27;;;5.50;;
842;SDS011;407;48.884;9.126;2023-07-08T04:29:06;13.88;;;5.00;;
842;SDS011;407;48.884;9.126;2023-07-08T04:31:35;11.73;;;4.00;;
842;SDS011;407;48.884;9.126;2023-07-08T04:34:01;13.70;;;4.72;;
842;SDS011;407;48.884;9.126;2023-07-08T04:36:27;9.98;;;4.78;;
842;SDS011;407;48.884;9.126;2023-07-08T04:38:52;11.13;;;4.40;;
842;SDS011;407;48.884;9.126;2023-07-08T04:41:18;16.67;;;5.13;;
842;SDS011;407;48.884;9.126;2023-07-08T04:43:43;10.70;;;4.53;;
842;SDS011;407;48.884;9.126;2023-07-08T04:46:25;13.23;;;4.70;;
842;SDS011;407;48.884;9.126;2023-07-08T04:49:00;17.60;;;5.50;;
842;SDS011;407;48.884;9.126;2023-07-08T04:51:29;13.15;;;4.25;;
842;SDS011;407;48.884;9.126;2023-07-08T04:53:55;12.80;;;4.70;;
842;SDS011;407;48.884;9.126;2023-07-08T04:56:20;12.73;;;4.90;;
842;SDS011;407;48.884;9.126;2023-07-08T04:58:48;11.88;;;4.65;;
842;SDS011;407;48.884;9.126;2023-07-08T05:01:13;10.80;;;4.30;;
842;SDS011;407;48.884;9.126;2023-07-08T05:03:39;15.50;;;4.50;;
842;SDS011;407;48.884;9.126;2023-07-08T05:06:05;12.07;;;4.97;;
842;SDS011;407;48.884;9.126;2023-07-08T05:08:30;15.53;;;4.80;;
842;SDS011;407;48.884;9.126;2023-07-08T05:10:56;10.07;;;4.57;;
842;SDS011;407;48.884;9.126;2023-07-08T05:13:23;14.10;;;5.30;;
842;SDS011;407;48.884;9.126;2023-07-08T05:15:48;12.40;;;4.50;;
842;SDS011;407;48.884;9.126;2023-07-08T05:18:14;11.98;;;4.50;;
842;SDS011;407;48.884;9.126;2023-07-08T05:20:39;12.18;;;3.92;;
842;SDS011;407;48.884;9.126;2023-07-08T05:23:05;11.95;;;4.40;;
842;SDS011;407;48.884;9.126;2023-07-08T05:25:32;15.02;;;5.63;;
842;SDS011;407;48.884;9.126;2023-07-08T05:27:58;12.85;;;4.60;;
842;SDS011;407;48.884;9.126;2023-07-08T05:30:23;14.90;;;5.00;;
842;SDS011;407;48.884;9.126;2023-07-08T05:32:49;14.50;;;5.27;;
842;SDS011;407;48.884;9.126;2023-07-08T05:35:14;16.60;;;5.13;;
842;SDS011;407;48.884;9.126;2023-07-08T05:37:40;11.65;;;4.65;;
842;SDS011;407;48.884;9.126;2023-07-08T05:40:07;14.30;;;5.40;;
842;SDS011;407;48.884;9.126;2023-07-08T05:42:33;11.93;;;4.60;;
842;SDS011;407;48.884;9.126;2023-07-08T05:44:59;12.10;;;3.97;;
842;SDS011;407;48.884;9.126;2023-07-08T05:47:24;10.17;;;3.93;;
842;SDS011;407;48.884;9.126;2023-07-08T05:49:50;12.20;;;4.60;;
842;SDS011;407;48.884;9.126;2023-07-08T05:52:17;12.55;;;5.00;;
842;SDS011;407;48.884;9.126;2023-07-08T05:54:42;14.50;;;4.30;;
842;SDS011;407;48.884;9.126;2023-07-08T05:57:08;11.00;;;4.57;;
842;SDS011;407;48.884;9.126;2023-07-08T05:59:35;13.35;;;4.70;;
842;SDS011;407;48.884;9.126;2023-07-08T06:02:02;11.82;;;4.30;;
842;SDS011;407;48.884;9.126;2023-07-08T06:04:28;14.38;;;4.85;;
842;SDS011;407;48.884;9.126;2023-07-08T06:06:54;11.18;;;3.85;;
842;SDS011;407;48.884;9.126;2023-07-08T06:09:19;11.65;;;4.45;;
842;SDS011;407;48.884;9.126;2023-07-08T06:11:45;11.38;;;4.13;;
842;SDS011;407;48.884;9.126;2023-07-08T06:14:12;11.10;;;4.15;;
842;SDS011;407;48.884;9.126;2023-07-08T06:16:37;12.67;;;4.40;;
842;SDS011;407;48.884;9.126;2023-07-08T06:19:03;10.38;;;4.40;;
842;SDS011;407;48.884;9.126;2023-07-08T06:21:29;13.95;;;5.10;;
842;SDS011;407;48.884;9.126;2023-07-08T06:23:54;13.67;;;4.40;;
842;SDS011;407;48.884;9.126;2023-07-08T06:26:20;10.70;;;4.30;;
842;SDS011;407;48.884;9.126;2023-07-08T06:28:45;10.00;;;4.53;;
842;SDS011;407;48.884;9.126;2023-07-08T06:31:11;11.38;;;4.50;;
842;SDS011;407;48.884;9.126;2023-07-08T06:33:36;13.60;;;4.37;;
842;SDS011;407;48.884;9.126;2023-07-08T06:36:02;11.32;;;4.00;;
842;SDS011;407;48.884;9.126;2023-07-08T06:38:27;9.85;;;3.85;;
842;SDS011;407;48.884;9.126;2023-07-08T06:40:53;9.87;;;3.90;;
842;SDS011;407;48.884;9.126;2023-07-08T06:43:18;9.45;;;3.58;;
842;SDS011;407;48.884;9.126;2023-07-08T06:45:44;10.50;;;3.93;;
842;SDS011;407;48.884;9.126;2023-07-08T06:48:10;9.47;;;3.37;;
842;SDS011;407;48.884;9.126;2023-07-08T06:50:35;9.73;;;3.70;;
842;SDS011;407;48.884;9.126;2023-07-08T06:53:01;9.40;;;3.93;;
842;SDS011;407;48.884;9.126;2023-07-08T06:55:26;9.80;;;3.10;;
842;SDS011;407;48.884;9.126;2023-07-08T06:57:52;9.55;;;3.50;;
842;SDS011;407;48.884;9.126;2023-07-08T07:00:18;9.20;;;3.30;;
842;SDS011;407;48.884;9.126;2023-07-08T07:02:43;11.23;;;3.80;;
842;SDS011;407;48.884;9.126;2023-07-08T07:05:09;9.38;;;3.40;;
842;SDS011;407;48.884;9.126;2023-07-08T07:07:38;10.93;;;4.22;;
842;SDS011;407;48.884;9.126;2023-07-08T07:10:03;10.53;;;3.30;;
842;SDS011;407;48.884;9.126;2023-07-08T07:12:30;10.40;;;3.90;;
842;SDS011;407;48.884;9.126;2023-07-08T07:14:56;10.43;;;3.60;;
842;SDS011;407;48.884;9.126;2023-07-08T07:17:22;11.10;;;4.00;;
842;SDS011;407;48.884;9.126;2023-07-08T07:19:50;11.38;;;4.00;;
842;SDS011;407;48.884;9.126;2023-07-08T07:22:15;10.05;;;3.35;;
842;SDS011;407;48.884;9.126;2023-07-08T07:24:41;10.50;;;3.40;;
842;SDS011;407;48.884;9.126;2023-07-08T07:27:07;10.63;;;3.80;;
842;SDS011;407;48.884;9.126;2023-07-08T07:29:44;10.75;;;4.30;;
842;SDS011;407;48.884;9.126;2023-07-08T07:32:14;10.10;;;3.78;;
842;SDS011;407;48.884;9.126;2023-07-08T07:34:41;11.48;;;3.83;;
842;SDS011;407;48.884;9.126;2023-07-08T07:37:13;13.70;;;3.83;;
842;SDS011;407;48.884;9.126;2023-07-08T07:39:40;11.77;;;4.10;;
842;SDS011;407;48.884;9.126;2023-07-08T07:42:06;10.25;;;3.90;;
842;SDS011;407;48.884;9.126;2023-07-08T07:44:33;11.52;;;3.75;;
842;SDS011;407;48.884;9.126;2023-07-08T07:46:58;8.93;;;3.35;;
842;SDS011;407;48.884;9.126;2023-07-08T07:49:24;10.70;;;3.57;;
842;SDS011;407;48.884;9.126;2023-07-08T07:51:49;10.83;;;3.70;;
842;SDS011;407;48.884;9.126;2023-07-08T07:54:15;9.77;;;3.65;;
842;SDS011;407;48.884;9.126;2023-07-08T07:56:41;11.18;;;3.70;;
842;SDS011;407;48.884;9.126;2023-07-08T07:59:06;10.77;;;3.70;;
842;SDS011;407;48.884;9.126;2023-07-08T08:01:32;10.90;;;3.73;;
842;SDS011;407;48.884;9.126;2023-07-08T08:03:57;8.45;;;3.10;;
842;SDS011;407;48.884;9.126;2023-07-08T08:06:23;12.83;;;3.87;;
842;SDS011;407;48.884;9.126;2023-07-08T08:08:48;10.47;;;4.50;;
842;SDS011;407;48.884;9.126;2023-07-08T08:11:15;9.30;;;3.47;;
842;SDS011;407;48.884;9.126;2023-07-08T08:13:41;10.05;;;3.70;;
842;SDS011;407;48.884;9.126;2023-07-08T08:16:07;9.55;;;4.28;;
842;SDS011;407;48.884;9.126;2023-07-08T08:18:32;8.63;;;3.83;;
842;SDS011;407;48.884;9.126;2023-07-08T08:20:58;10.40;;;4.20;;
842;SDS011;407;48.884;9.126;2023-07-08T08:23:24;10.50;;;4.40;;
842;SDS011;407;48.884;9.126;2023-07-08T08:25:52;13.90;;;3.70;;
842;SDS011;407;48.884;9.126;2023-07-08T08:28:17;10.02;;;4.43;;
842;SDS011;407;48.884;9.126;2023-07-08T08:30:49;8.63;;;4.10;;
842;SDS011;407;48.884;9.126;2023-07-08T08:33:15;9.75;;;4.00;;
842;SDS011;407;48.884;9.126;2023-07-08T08:35:42;10.68;;;3.63;;
842;SDS011;407;48.884;9.126;2023-07-08T08:38:08;9.60;;;3.57;;
842;SDS011;407;48.884;9.126;2023-07-08T08:40:33;8.02;;;3.33;;
842;SDS011;407;48.884;9.126;2023-07-08T08:43:04;10.50;;;3.00;;
842;SDS011;407;48.884;9.126;2023-07-08T08:45:34;8.43;;;3.03;;
842;SDS011;407;48.884;9.126;2023-07-08T08:48:13;7.75;;;3.08;;
842;SDS011;407;48.884;9.126;2023-07-08T08:53:34;8.82;;;3.38;;
842;SDS011;407;48.884;9.126;2023-07-08T08:56:03;8.13;;;3.10;;
842;SDS011;407;48.884;9.126;2023-07-08T08:58:47;9.17;;;3.40;;
842;SDS011;407;48.884;9.126;2023-07-08T09:01:32;9.60;;;3.00;;
842;SDS011;407;48.884;9.126;2023-07-08T09:03:59;7.90;;;3.25;;
842;SDS011;407;48.884;9.126;2023-07-08T09:06:31;7.30;;;2.60;;
842;SDS011;407;48.884;9.126;2023-07-08T09:09:13;8.95;;;2.95;;
842;SDS011;407;48.884;9.126;2023-07-08T09:11:58;7.67;;;3.10;;
842;SDS011;407;48.884;9.126;2023-07-08T09:14:38;7.40;;;2.67;;
842;SDS011;407;48.884;9.126;2023-07-08T09:19:51;10.82;;;3.25;;
842;SDS011;407;48.884;9.126;2023-07-08T09:22:25;9.25;;;2.88;;
842;SDS011;407;48.884;9.126;2023-07-08T09:27:46;8.75;;;3.05;;
842;SDS011;407;48.884;9.126;2023-07-08T09:30:16;7.78;;;2.50;;
842;SDS011;407;48.884;9.126;2023-07-08T09:32:45;7.70;;;2.35;;
842;SDS011;407;48.884;9.126;2023-07-08T09:35:17;7.60;;;2.60;;
842;SDS011;407;48.884;9.126;2023-07-08T09:37:46;8.00;;;2.60;;
842;SDS011;407;48.884;9.126;2023-07-08T09:42:46;7.88;;;2.70;;
842;SDS011;407;48.884;9.126;2023-07-08T09:45:22;7.20;;;2.30;;
842;SDS011;407;48.884;9.126;2023-07-08T09:47:53;8.00;;;2.47;;
842;SDS011;407;48.884;9.126;2023-07-08T09:50:24;7.30;;;2.07;;
842;SDS011;407;48.884;9.126;2023-07-08T09:52:52;6.90;;;2.40;;
842;SDS011;407;48.884;9.126;2023-07-08T09:55:22;8.83;;;2.40;;
842;SDS011;407;48.884;9.126;2023-07-08T09:57:49;7.70;;;2.30;;
842;SDS011;407;48.884;9.126;2023-07-08T10:00:18;7.13;;;1.98;;
842;SDS011;407;48.884;9.126;2023-07-08T10:02:53;7.25;;;1.75;;
842;SDS011;407;48.884;9.126;2023-07-08T10:05:28;5.20;;;0.90;;
842;SDS011;407;48.884;9.126;2023-07-08T10:08:00;6.70;;;1.60;;
842;SDS011;407;48.884;9.126;2023-07-08T10:10:34;6.20;;;1.37;;
842;SDS011;407;48.884;9.126;2023-07-08T10:13:22;7.63;;;1.40;;
842;SDS011;407;48.884;9.126;2023-07-08T10:16:14;6.68;;;1.50;;
842;SDS011;407;48.884;9.126;2023-07-08T10:18:51;6.20;;;1.33;;
842;SDS011;407;48.884;9.126;2023-07-08T10:21:23;6.60;;;1.60;;
842;SDS011;407;48.884;9.126;2023-07-08T10:24:13;5.60;;;1.30;;
842;SDS011;407;48.884;9.126;2023-07-08T10:27:21;5.60;;;1.15;;
842;SDS011;407;48.884;9.126;2023-07-08T10:32:36;6.80;;;1.90;;
842;SDS011;407;48.884;9.126;2023-07-08T10:35:19;5.50;;;1.40;;
842;SDS011;407;48.884;9.126;2023-07-08T10:40:43;6.23;;;1.80;;
842;SDS011;407;48.884;9.126;2023-07-08T10:43:25;7.10;;;1.90;;
842;SDS011;407;48.884;9.126;2023-07-08T10:46:00;6.68;;;1.70;;
842;SDS011;407;48.884;9.126;2023-07-08T10:48:58;6.57;;;1.80;;
842;SDS011;407;48.884;9.126;2023-07-08T10:56:50;6.70;;;2.00;;
842;SDS011;407;48.884;9.126;2023-07-08T10:59:40;6.95;;;1.85;;
842;SDS011;407;48.884;9.126;2023-07-08T11:05:58;7.95;;;2.20;;
842;SDS011;407;48.884;9.126;2023-07-08T11:08:41;7.43;;;2.47;;
842;SDS011;407;48.884;9.126;2023-07-08T11:11:21;8.15;;;2.88;;
842;SDS011;407;48.884;9.126;2023-07-08T11:13:54;9.10;;;3.20;;
842;SDS011;407;48.884;9.126;2023-07-08T11:16:32;9.35;;;2.80;;
842;SDS011;407;48.884;9.126;2023-07-08T11:19:04;7.75;;;2.67;;
842;SDS011;407;48.884;9.126;2023-07-08T11:24:18;7.73;;;2.60;;
842;SDS011;407;48.884;9.126;2023-07-08T11:27:06;6.90;;;2.10;;
842;SDS011;407;48.884;9.126;2023-07-08T11:29:50;7.30;;;2.78;;
842;SDS011;407;48.884;9.126;2023-07-08T11:32:22;9.00;;;3.10;;
842;SDS011;407;48.884;9.126;2023-07-08T11:34:51;7.60;;;2.50;;
842;SDS011;407;48.884;9.126;2023-07-08T11:37:18;8.10;;;2.50;;
842;SDS011;407;48.884;9.126;2023-07-08T11:39:47;8.35;;;2.22;;
842;SDS011;407;48.884;9.126;2023-07-08T11:42:41;7.15;;;2.15;;
842;SDS011;407;48.884;9.126;2023-07-08T11:45:19;6.87;;;2.27;;
842;SDS011;407;48.884;9.126;2023-07-08T11:47:52;6.53;;;2.10;;
842;SDS011;407;48.884;9.126;2023-07-08T11:50:22;8.60;;;2.60;;
842;SDS011;407;48.884;9.126;2023-07-08T11:53:03;6.30;;;2.10;;
842;SDS011;407;48.884;9.126;2023-07-08T11:55:47;6.65;;;2.10;;
842;SDS011;407;48.884;9.126;2023-07-08T11:58:24;9.52;;;2.35;;
842;SDS011;407;48.884;9.126;2023-07-08T12:01:03;9.48;;;2.10;;
842;SDS011;407;48.884;9.126;2023-07-08T12:03:39;7.03;;;2.17;;
842;SDS011;407;48.884;9.126;2023-07-08T12:08:54;6.70;;;2.30;;
842;SDS011;407;48.884;9.126;2023-07-08T12:11:31;7.55;;;2.30;;
842;SDS011;407;48.884;9.126;2023-07-08T12:13:59;7.50;;;2.30;;
842;SDS011;407;48.884;9.126;2023-07-08T12:16:27;6.68;;;2.28;;
842;SDS011;407;48.884;9.126;2023-07-08T12:18:54;6.85;;;1.80;;
842;SDS011;407;48.884;9.126;2023-07-08T12:21:22;7.00;;;2.30;;
842;SDS011;407;48.884;9.126;2023-07-08T12:23:48;7.10;;;1.95;;
842;SDS011;407;48.884;9.126;2023-07-08T12:26:14;7.85;;;2.17;;
842;SDS011;407;48.884;9.126;2023-07-08T12:28:40;7.38;;;2.20;;
842;SDS011;407;48.884;9.126;2023-07-08T12:31:09;6.50;;;1.90;;
842;SDS011;407;48.884;9.126;2023-07-08T12:33:43;9.10;;;2.25;;
842;SDS011;407;48.884;9.126;2023-07-08T12:36:10;6.63;;;2.40;;
842;SDS011;407;48.884;9.126;2023-07-08T12:38:41;7.78;;;2.33;;
842;SDS011;407;48.884;9.126;2023-07-08T12:41:17;8.00;;;2.40;;
842;SDS011;407;48.884;9.126;2023-07-08T12:43:43;7.85;;;2.30;;
842;SDS011;407;48.884;9.126;2023-07-08T12:46:10;6.30;;;2.05;;
842;SDS011;407;48.884;9.126;2023-07-08T12:48:36;6.95;;;2.20;;
842;SDS011;407;48.884;9.126;2023-07-08T12:51:04;6.30;;;2.20;;
842;SDS011;407;48.884;9.126;2023-07-08T12:53:31;6.93;;;2.17;;
842;SDS011;407;48.884;9.126;2023-07-08T12:55:59;7.13;;;2.10;;
842;SDS011;407;48.884;9.126;2023-07-08T12:58:27;7.93;;;1.70;;
842;SDS011;407;48.884;9.126;2023-07-08T13:00:55;7.50;;;2.65;;
842;SDS011;407;48.884;9.126;2023-07-08T13:03:26;7.18;;;2.25;;
842;SDS011;407;48.884;9.126;2023-07-08T13:05:54;6.50;;;2.17;;
842;SDS011;407;48.884;9.126;2023-07-08T13:08:22;6.30;;;2.10;;
842;SDS011;407;48.884;9.126;2023-07-08T13:10:57;7.60;;;2.63;;
842;SDS011;407;48.884;9.126;2023-07-08T13:13:34;6.93;;;2.00;;
842;SDS011;407;48.884;9.126;2023-07-08T13:16:03;6.90;;;2.20;;
842;SDS011;407;48.884;9.126;2023-07-08T13:20:59;9.32;;;2.13;;
842;SDS011;407;48.884;9.126;2023-07-08T13:23:25;6.50;;;2.03;;
842;SDS011;407;48.884;9.126;2023-07-08T13:25:52;6.60;;;2.10;;
842;SDS011;407;48.884;9.126;2023-07-08T13:28:26;8.15;;;1.75;;
842;SDS011;407;48.884;9.126;2023-07-08T13:30:54;7.20;;;2.37;;
842;SDS011;407;48.884;9.126;2023-07-08T13:33:33;6.90;;;1.90;;
842;SDS011;407;48.884;9.126;2023-07-08T13:36:02;7.05;;;1.90;;
842;SDS011;407;48.884;9.126;2023-07-08T13:38:37;6.95;;;2.17;;
842;SDS011;407;48.884;9.126;2023-07-08T13:41:05;6.80;;;2.13;;
842;SDS011;407;48.884;9.126;2023-07-08T13:43:32;6.50;;;1.90;;
842;SDS011;407;48.884;9.126;2023-07-08T13:46:00;7.78;;;1.70;;
842;SDS011;407;48.884;9.126;2023-07-08T13:48:27;6.75;;;2.00;;
842;SDS011;407;48.884;9.126;2023-07-08T13:50:57;6.75;;;1.67;;
842;SDS011;407;48.884;9.126;2023-07-08T13:53:32;7.50;;;2.30;;
842;SDS011;407;48.884;9.126;2023-07-08T13:56:29;8.07;;;2.33;;
842;SDS011;407;48.884;9.126;2023-07-08T13:59:02;7.60;;;2.10;;
842;SDS011;407;48.884;9.126;2023-07-08T14:01:30;6.15;;;1.80;;
842;SDS011;407;48.884;9.126;2023-07-08T14:03:58;6.50;;;2.05;;
842;SDS011;407;48.884;9.126;2023-07-08T14:06:28;7.05;;;2.10;;
842;SDS011;407;48.884;9.126;2023-07-08T14:08:57;8.97;;;2.30;;
842;SDS011;407;48.884;9.126;2023-07-08T14:11:24;7.43;;;2.10;;
842;SDS011;407;48.884;9.126;2023-07-08T14:13:50;6.32;;;2.05;;
842;SDS011;407;48.884;9.126;2023-07-08T14:16:24;6.03;;;1.70;;
842;SDS011;407;48.884;9.126;2023-07-08T14:18:53;9.23;;;1.75;;
842;SDS011;407;48.884;9.126;2023-07-08T14:21:20;9.70;;;1.93;;
842;SDS011;407;48.884;9.126;2023-07-08T14:23:46;7.60;;;1.87;;
842;SDS011;407;48.884;9.126;2023-07-08T14:26:11;7.05;;;1.75;;
842;SDS011;407;48.884;9.126;2023-07-08T14:28:37;7.00;;;1.80;;
842;SDS011;407;48.884;9.126;2023-07-08T14:31:04;8.20;;;1.73;;
842;SDS011;407;48.884;9.126;2023-07-08T14:33:39;6.00;;;1.45;;
842;SDS011;407;48.884;9.126;2023-07-08T14:36:11;8.27;;;1.80;;
842;SDS011;407;48.884;9.126;2023-07-08T14:38:37;7.45;;;2.08;;
842;SDS011;407;48.884;9.126;2023-07-08T14:41:03;6.40;;;1.90;;
842;SDS011;407;48.884;9.126;2023-07-08T14:43:30;8.65;;;2.10;;
842;SDS011;407;48.884;9.126;2023-07-08T14:46:00;7.37;;;1.70;;
842;SDS011;407;48.884;9.126;2023-07-08T14:48:28;6.70;;;1.77;;
842;SDS011;407;48.884;9.126;2023-07-08T14:50:55;7.53;;;2.20;;
842;SDS011;407;48.884;9.126;2023-07-08T14:53:20;6.97;;;2.17;;
842;SDS011;407;48.884;9.126;2023-07-08T14:55:47;8.70;;;1.75;;
842;SDS011;407;48.884;9.126;2023-07-08T14:58:28;6.63;;;2.00;;
842;SDS011;407;48.884;9.126;2023-07-08T15:00:56;7.80;;;2.00;;
842;SDS011;407;48.884;9.126;2023-07-08T15:03:23;8.02;;;2.30;;
842;SDS011;407;48.884;9.126;2023-07-08T15:05:52;6.20;;;1.65;;
842;SDS011;407;48.884;9.126;2023-07-08T15:08:17;8.07;;;2.00;;
842;SDS011;407;48.884;9.126;2023-07-08T15:10:46;8.95;;;1.80;;
842;SDS011;407;48.884;9.126;2023-07-08T15:13:14;9.32;;;1.60;;
842;SDS011;407;48.884;9.126;2023-07-08T15:15:42;8.30;;;1.50;;
842;SDS011;407;48.884;9.126;2023-07-08T15:18:15;6.35;;;1.80;;
842;SDS011;407;48.884;9.126;2023-07-08T15:20:42;5.88;;;1.50;;
842;SDS011;407;48.884;9.126;2023-07-08T15:23:09;10.43;;;2.28;;
842;SDS011;407;48.884;9.126;2023-07-08T15:25:35;6.68;;;2.03;;
842;SDS011;407;48.884;9.126;2023-07-08T15:28:02;8.23;;;1.65;;
842;SDS011;407;48.884;9.126;2023-07-08T15:30:29;8.70;;;1.73;;
842;SDS011;407;48.884;9.126;2023-07-08T15:32:55;6.60;;;1.63;;
842;SDS011;407;48.884;9.126;2023-07-08T15:35:26;6.80;;;1.80;;
842;SDS011;407;48.884;9.126;2023-07-08T15:37:57;6.90;;;1.95;;
842;SDS011;407;48.884;9.126;2023-07-08T15:40:24;7.80;;;2.00;;
842;SDS011;407;48.884;9.126;2023-07-08T15:42:55;6.70;;;2.17;;
842;SDS011;407;48.884;9.126;2023-07-08T15:45:24;7.50;;;2.03;;
842;SDS011;407;48.884;9.126;2023-07-08T15:47:54;7.25;;;1.63;;
842;SDS011;407;48.884;9.126;2023-07-08T15:50:23;7.85;;;2.20;;
842;SDS011;407;48.884;9.126;2023-07-08T15:52:50;6.93;;;2.10;;
842;SDS011;407;48.884;9.126;2023-07-08T15:55:17;8.43;;;2.20;;
842;SDS011;407;48.884;9.126;2023-07-08T15:57:56;5.90;;;1.80;;
842;SDS011;407;48.884;9.126;2023-07-08T16:00:26;6.50;;;1.88;;
842;SDS011;407;48.884;9.126;2023-07-08T16:02:56;6.63;;;1.98;;
842;SDS011;407;48.884;9.126;2023-07-08T16:05:24;7.00;;;1.90;;
842;SDS011;407;48.884;9.126;2023-07-08T16:07:50;7.63;;;2.20;;
842;SDS011;407;48.884;9.126;2023-07-08T16:10:17;8.40;;;1.58;;
842;SDS011;407;48.884;9.126;2023-07-08T16:12:43;7.18;;;2.10;;
842;SDS011;407;48.884;9.126;2023-07-08T16:15:14;7.30;;;2.08;;
842;SDS011;407;48.884;9.126;2023-07-08T16:17:42;6.78;;;1.77;;
842;SDS011;407;48.884;9.126;2023-07-08T16:20:12;7.20;;;1.92;;
842;SDS011;407;48.884;9.126;2023-07-08T16:22:41;9.73;;;2.50;;
842;SDS011;407;48.884;9.126;2023-07-08T16:25:07;6.50;;;1.93;;
842;SDS011;407;48.884;9.126;2023-07-08T16:27:38;6.60;;;1.83;;
842;SDS011;407;48.884;9.126;2023-07-08T16:30:04;6.45;;;2.10;;
842;SDS011;407;48.884;9.126;2023-07-08T16:32:30;6.93;;;1.92;;